sensor_id;sensor_type;location;lat;lon;timestamp;pressure;altitude;pressure_sealevel;temperature;humidity
79004;BME280;68369;51.050;17.018;2023-11-19T00:00:26;100697.39;;;3.98;77.36
79004;BME280;68369;51.050;17.018;2023-11-19T00:23:56;100628.73;;;3.87;77.72
79004;BME280;68369;51.050;17.018;2023-11-19T00:26:44;100631.39;;;3.83;77.87
79004;BME280;68369;51.050;17.018;2023-11-19T00:29:31;100621.55;;;3.80;77.91
79004;BME280;68369;51.050;17.018;2023-11-19T00:32:17;100619.32;;;3.78;77.96
79004;BME280;68369;51.050;17.018;2023-11-19T00:35:05;100617.44;;;3.76;77.91
79004;BME280;68369;51.050;17.018;2023-11-19T00:37:52;100613.63;;;3.76;77.94
79004;BME280;68369;51.050;17.018;2023-11-19T00:40:40;100608.45;;;3.74;77.83
79004;BME280;68369;51.050;17.018;2023-11-19T01:10:23;100537.08;;;3.59;77.91
79004;BME280;68369;51.050;17.018;2023-11-19T01:19:33;100491.34;;;3.46;78.04
79004;BME280;68369;51.050;17.018;2023-11-19T01:32:19;100462.48;;;3.43;77.99
79004;BME280;68369;51.050;17.018;2023-11-19T01:35:06;100466.13;;;3.41;77.84
79004;BME280;68369;51.050;17.018;2023-11-19T01:37:54;100463.23;;;3.38;77.87
79004;BME280;68369;51.050;17.018;2023-11-19T02:07:32;100415.52;;;3.18;77.75
79004;BME280;68369;51.050;17.018;2023-11-19T02:10:19;100413.47;;;3.15;77.90
79004;BME280;68369;51.050;17.018;2023-11-19T02:13:05;100424.73;;;3.12;78.08
79004;BME280;68369;51.050;17.018;2023-11-19T02:15:56;100420.94;;;3.11;77.95
79004;BME280;68369;51.050;17.018;2023-11-19T02:28:05;100401.08;;;3.24;78.01
79004;BME280;68369;51.050;17.018;2023-11-19T02:30:51;100396.77;;;3.23;78.00
79004;BME280;68369;51.050;17.018;2023-11-19T02:33:40;100389.01;;;3.21;77.71
79004;BME280;68369;51.050;17.018;2023-11-19T02:36:26;100377.98;;;3.17;78.10
79004;BME280;68369;51.050;17.018;2023-11-19T02:39:12;100371.11;;;3.14;77.91
79004;BME280;68369;51.050;17.018;2023-11-19T02:41:59;100369.74;;;3.11;78.11
79004;BME280;68369;51.050;17.018;2023-11-19T02:54:22;100375.51;;;3.22;77.97
79004;BME280;68369;51.050;17.018;2023-11-19T02:57:12;100374.65;;;3.20;77.73
79004;BME280;68369;51.050;17.018;2023-11-19T03:00:08;100357.76;;;3.16;77.88
79004;BME280;68369;51.050;17.018;2023-11-19T03:02:58;100352.63;;;3.11;77.91
79004;BME280;68369;51.050;17.018;2023-11-19T03:05:46;100352.49;;;3.07;77.87
79004;BME280;68369;51.050;17.018;2023-11-19T03:25:01;100289.71;;;3.08;77.86
79004;BME280;68369;51.050;17.018;2023-11-19T03:33:56;100284.75;;;3.02;78.09
79004;BME280;68369;51.050;17.018;2023-11-19T03:39:56;100293.74;;;3.02;78.17
79004;BME280;68369;51.050;17.018;2023-11-19T03:42:48;100286.44;;;3.06;78.19
79004;BME280;68369;51.050;17.018;2023-11-19T03:45:41;100273.07;;;3.10;78.22
79004;BME280;68369;51.050;17.018;2023-11-19T03:48:29;100262.84;;;3.13;78.11
79004;BME280;68369;51.050;17.018;2023-11-19T03:57:39;100239.50;;;3.12;78.13
79004;BME280;68369;51.050;17.018;2023-11-19T04:00:25;100224.30;;;3.09;78.29
79004;BME280;68369;51.050;17.018;2023-11-19T04:03:12;100207.58;;;3.05;78.04
79004;BME280;68369;51.050;17.018;2023-11-19T04:05:58;100211.56;;;3.05;78.08
79004;BME280;68369;51.050;17.018;2023-11-19T04:41:59;100100.75;;;3.14;77.97
79004;BME280;68369;51.050;17.018;2023-11-19T04:44:46;100093.31;;;3.14;78.04
79004;BME280;68369;51.050;17.018;2023-11-19T04:53:45;100089.20;;;3.11;78.00
79004;BME280;68369;51.050;17.018;2023-11-19T05:13:27;100060.80;;;3.13;78.12
79004;BME280;68369;51.050;17.018;2023-11-19T05:16:14;100057.77;;;3.09;77.99
79004;BME280;68369;51.050;17.018;2023-11-19T05:21:45;100042.92;;;3.08;78.34
79004;BME280;68369;51.050;17.018;2023-11-19T05:24:32;100030.44;;;3.09;78.07
79004;BME280;68369;51.050;17.018;2023-11-19T05:31:04;100034.75;;;3.21;78.09
79004;BME280;68369;51.050;17.018;2023-11-19T05:47:14;100027.46;;;3.21;78.27
79004;BME280;68369;51.050;17.018;2023-11-19T05:50:00;100030.11;;;3.28;78.10
79004;BME280;68369;51.050;17.018;2023-11-19T06:02:23;99990.98;;;3.31;78.04
79004;BME280;68369;51.050;17.018;2023-11-19T06:05:09;99990.52;;;3.27;77.94
79004;BME280;68369;51.050;17.018;2023-11-19T06:07:56;99983.24;;;3.28;78.15
79004;BME280;68369;51.050;17.018;2023-11-19T06:10:44;99982.66;;;3.32;78.09
79004;BME280;68369;51.050;17.018;2023-11-19T06:13:34;99981.89;;;3.36;77.83
79004;BME280;68369;51.050;17.018;2023-11-19T06:19:13;99977.00;;;3.39;77.88
79004;BME280;68369;51.050;17.018;2023-11-19T06:21:59;99985.98;;;3.39;77.90
79004;BME280;68369;51.050;17.018;2023-11-19T06:24:46;99972.85;;;3.38;77.89
79004;BME280;68369;51.050;17.018;2023-11-19T06:27:34;99961.25;;;3.38;77.87
79004;BME280;68369;51.050;17.018;2023-11-19T06:30:20;99964.16;;;3.41;77.95
79004;BME280;68369;51.050;17.018;2023-11-19T06:33:07;99959.19;;;3.46;77.90
79004;BME280;68369;51.050;17.018;2023-11-19T06:35:53;99945.41;;;3.53;77.76
79004;BME280;68369;51.050;17.018;2023-11-19T06:38:40;99934.83;;;3.54;77.73
79004;BME280;68369;51.050;17.018;2023-11-19T07:04:05;99881.21;;;3.69;77.45
79004;BME280;68369;51.050;17.018;2023-11-19T07:06:55;99877.56;;;3.70;77.44
79004;BME280;68369;51.050;17.018;2023-11-19T07:09:41;99875.65;;;3.70;77.69
79004;BME280;68369;51.050;17.018;2023-11-19T07:34:24;99854.88;;;3.93;77.50
79004;BME280;68369;51.050;17.018;2023-11-19T07:37:10;99860.55;;;3.95;77.45
79004;BME280;68369;51.050;17.018;2023-11-19T07:49:30;99841.39;;;4.15;76.83
79004;BME280;68369;51.050;17.018;2023-11-19T07:52:17;99834.17;;;4.12;76.94
79004;BME280;68369;51.050;17.018;2023-11-19T08:01:31;99825.54;;;4.11;77.01
79004;BME280;68369;51.050;17.018;2023-11-19T08:04:17;99819.89;;;4.16;77.14
79004;BME280;68369;51.050;17.018;2023-11-19T08:07:04;99821.84;;;4.21;76.94
79004;BME280;68369;51.050;17.018;2023-11-19T08:09:51;99814.04;;;4.22;76.82
79004;BME280;68369;51.050;17.018;2023-11-19T08:12:37;99809.90;;;4.20;77.06
79004;BME280;68369;51.050;17.018;2023-11-19T08:15:47;99804.17;;;4.21;77.18
79004;BME280;68369;51.050;17.018;2023-11-19T08:18:33;99801.27;;;4.20;77.07
79004;BME280;68369;51.050;17.018;2023-11-19T08:24:14;99790.20;;;4.19;77.23
79004;BME280;68369;51.050;17.018;2023-11-19T08:33:17;99778.30;;;4.16;77.63
79004;BME280;68369;51.050;17.018;2023-11-19T08:36:08;99768.70;;;4.12;77.90
79004;BME280;68369;51.050;17.018;2023-11-19T08:38:55;99761.92;;;4.06;78.37
79004;BME280;68369;51.050;17.018;2023-11-19T08:41:42;99751.98;;;4.01;78.27
79004;BME280;68369;51.050;17.018;2023-11-19T08:44:29;99741.80;;;4.00;78.53
79004;BME280;68369;51.050;17.018;2023-11-19T08:53:38;99715.14;;;3.86;79.00
79004;BME280;68369;51.050;17.018;2023-11-19T08:56:24;99703.70;;;3.80;79.04
79004;BME280;68369;51.050;17.018;2023-11-19T09:05:26;99698.48;;;3.74;79.74
79004;BME280;68369;51.050;17.018;2023-11-19T09:08:12;99691.69;;;3.76;79.94
79004;BME280;68369;51.050;17.018;2023-11-19T09:30:56;99673.78;;;4.05;81.18
79004;BME280;68369;51.050;17.018;2023-11-19T09:36:39;99668.01;;;4.14;81.48
79004;BME280;68369;51.050;17.018;2023-11-19T09:39:30;99662.96;;;4.21;81.78
79004;BME280;68369;51.050;17.018;2023-11-19T09:48:42;99660.40;;;4.58;81.66
79004;BME280;68369;51.050;17.018;2023-11-19T09:54:08;99643.98;;;4.74;81.21
79004;BME280;68369;51.050;17.018;2023-11-19T09:56:59;99638.58;;;4.75;81.22
79004;BME280;68369;51.050;17.018;2023-11-19T09:59:50;99635.02;;;4.78;81.60
79004;BME280;68369;51.050;17.018;2023-11-19T10:02:37;99630.61;;;4.81;81.79
79004;BME280;68369;51.050;17.018;2023-11-19T10:05:25;99617.83;;;4.85;81.62
79004;BME280;68369;51.050;17.018;2023-11-19T10:08:12;99610.96;;;4.89;81.68
79004;BME280;68369;51.050;17.018;2023-11-19T10:10:59;99602.91;;;4.86;81.21
79004;BME280;68369;51.050;17.018;2023-11-19T10:30:37;99560.27;;;4.51;84.84
79004;BME280;68369;51.050;17.018;2023-11-19T10:43:43;99527.08;;;4.47;86.57
79004;BME280;68369;51.050;17.018;2023-11-19T10:46:40;99519.81;;;4.47;86.71
79004;BME280;68369;51.050;17.018;2023-11-19T10:58:51;99513.31;;;4.55;87.60
79004;BME280;68369;51.050;17.018;2023-11-19T11:04:30;99517.13;;;4.55;87.63
79004;BME280;68369;51.050;17.018;2023-11-19T11:07:21;99509.55;;;4.59;87.83
79004;BME280;68369;51.050;17.018;2023-11-19T11:10:25;99510.95;;;4.64;87.93
79004;BME280;68369;51.050;17.018;2023-11-19T11:13:13;99501.82;;;4.63;87.90
79004;BME280;68369;51.050;17.018;2023-11-19T11:16:00;99483.67;;;4.61;88.13
79004;BME280;68369;51.050;17.018;2023-11-19T11:25:13;99475.27;;;4.58;88.58
79004;BME280;68369;51.050;17.018;2023-11-19T11:50:31;99452.11;;;4.94;89.89
79004;BME280;68369;51.050;17.018;2023-11-19T11:53:21;99449.89;;;4.98;90.01
79004;BME280;68369;51.050;17.018;2023-11-19T11:56:09;99442.76;;;5.03;90.02
79004;BME280;68369;51.050;17.018;2023-11-19T12:01:59;99437.38;;;5.24;90.22
79004;BME280;68369;51.050;17.018;2023-11-19T12:04:47;99434.91;;;5.34;90.53
79004;BME280;68369;51.050;17.018;2023-11-19T12:07:35;99429.80;;;5.42;90.37
79004;BME280;68369;51.050;17.018;2023-11-19T12:10:25;99424.45;;;5.51;90.26
79004;BME280;68369;51.050;17.018;2023-11-19T12:19:13;99411.46;;;5.74;90.19
79004;BME280;68369;51.050;17.018;2023-11-19T12:22:00;99419.40;;;5.84;90.26
79004;BME280;68369;51.050;17.018;2023-11-19T12:25:22;99410.39;;;5.94;90.25
79004;BME280;68369;51.050;17.018;2023-11-19T12:28:12;99402.88;;;6.04;90.14
79004;BME280;68369;51.050;17.018;2023-11-19T12:31:08;99399.54;;;6.14;90.02
79004;BME280;68369;51.050;17.018;2023-11-19T12:33:56;99396.33;;;6.25;90.07
79004;BME280;68369;51.050;17.018;2023-11-19T12:36:42;99392.73;;;6.32;90.17
79004;BME280;68369;51.050;17.018;2023-11-19T12:39:32;99395.39;;;6.41;90.29
79004;BME280;68369;51.050;17.018;2023-11-19T12:42:18;99394.07;;;6.47;90.16
79004;BME280;68369;51.050;17.018;2023-11-19T12:45:06;99391.70;;;6.50;89.86
79004;BME280;68369;51.050;17.018;2023-11-19T12:48:17;99392.67;;;6.55;89.96
79004;BME280;68369;51.050;17.018;2023-11-19T12:51:07;99388.80;;;6.61;90.05
79004;BME280;68369;51.050;17.018;2023-11-19T12:53:56;99381.97;;;6.67;89.92
79004;BME280;68369;51.050;17.018;2023-11-19T12:56:54;99382.23;;;6.72;90.27
79004;BME280;68369;51.050;17.018;2023-11-19T12:59:41;99379.79;;;6.77;89.83
79004;BME280;68369;51.050;17.018;2023-11-19T13:02:53;99373.14;;;6.82;90.02
79004;BME280;68369;51.050;17.018;2023-11-19T13:05:40;99364.07;;;6.83;89.92
79004;BME280;68369;51.050;17.018;2023-11-19T13:08:27;99361.05;;;6.85;89.46
79004;BME280;68369;51.050;17.018;2023-11-19T13:14:06;99356.63;;;6.90;89.42
79004;BME280;68369;51.050;17.018;2023-11-19T13:30:52;99340.30;;;7.17;89.43
79004;BME280;68369;51.050;17.018;2023-11-19T13:33:41;99337.58;;;7.20;89.08
79004;BME280;68369;51.050;17.018;2023-11-19T13:36:29;99329.56;;;7.28;89.41
79004;BME280;68369;51.050;17.018;2023-11-19T13:39:16;99328.40;;;7.34;89.22
79004;BME280;68369;51.050;17.018;2023-11-19T13:42:09;99327.05;;;7.41;89.16
79004;BME280;68369;51.050;17.018;2023-11-19T13:44:58;99325.33;;;7.49;89.23
79004;BME280;68369;51.050;17.018;2023-11-19T13:47:45;99329.93;;;7.55;89.08
79004;BME280;68369;51.050;17.018;2023-11-19T13:50:32;99331.96;;;7.64;89.62
79004;BME280;68369;51.050;17.018;2023-11-19T13:53:21;99337.33;;;7.72;88.90
79004;BME280;68369;51.050;17.018;2023-11-19T13:56:08;99340.17;;;7.78;89.15
79004;BME280;68369;51.050;17.018;2023-11-19T14:02:17;99345.04;;;7.97;89.12
79004;BME280;68369;51.050;17.018;2023-11-19T14:05:05;99340.81;;;8.05;89.26
79004;BME280;68369;51.050;17.018;2023-11-19T14:07:55;99344.20;;;8.11;88.69
79004;BME280;68369;51.050;17.018;2023-11-19T14:10:42;99341.67;;;8.16;88.54
79004;BME280;68369;51.050;17.018;2023-11-19T14:13:29;99346.91;;;8.16;87.96
79004;BME280;68369;51.050;17.018;2023-11-19T14:16:15;99346.98;;;8.15;87.11
79004;BME280;68369;51.050;17.018;2023-11-19T14:19:02;99345.55;;;8.16;87.30
79004;BME280;68369;51.050;17.018;2023-11-19T14:28:33;99355.13;;;8.27;87.09
79004;BME280;68369;51.050;17.018;2023-11-19T14:33:25;99343.27;;;8.31;86.91
79004;BME280;68369;51.050;17.018;2023-11-19T14:40:45;99342.11;;;8.36;86.39
79004;BME280;68369;51.050;17.018;2023-11-19T14:44:54;99339.77;;;8.35;85.34
79004;BME280;68369;51.050;17.018;2023-11-19T14:49:08;99342.04;;;8.31;85.34
79004;BME280;68369;51.050;17.018;2023-11-19T14:53:03;99336.68;;;8.30;84.76
79004;BME280;68369;51.050;17.018;2023-11-19T14:59:33;99332.27;;;8.27;84.31
79004;BME280;68369;51.050;17.018;2023-11-19T15:02:21;99331.14;;;8.22;84.19
79004;BME280;68369;51.050;17.018;2023-11-19T15:05:08;99341.14;;;8.20;84.19
79004;BME280;68369;51.050;17.018;2023-11-19T15:08:45;99337.88;;;8.15;83.12
79004;BME280;68369;51.050;17.018;2023-11-19T15:14:18;99336.60;;;8.06;82.64
79004;BME280;68369;51.050;17.018;2023-11-19T15:17:08;99336.20;;;8.11;82.78
79004;BME280;68369;51.050;17.018;2023-11-19T15:19:57;99337.70;;;8.15;82.67
79004;BME280;68369;51.050;17.018;2023-11-19T15:22:44;99340.75;;;8.17;81.96
79004;BME280;68369;51.050;17.018;2023-11-19T15:25:31;99338.00;;;8.17;81.60
79004;BME280;68369;51.050;17.018;2023-11-19T15:28:17;99347.70;;;8.15;81.25
79004;BME280;68369;51.050;17.018;2023-11-19T15:31:05;99355.52;;;8.15;81.51
79004;BME280;68369;51.050;17.018;2023-11-19T15:33:52;99359.42;;;8.17;81.11
79004;BME280;68369;51.050;17.018;2023-11-19T15:39:40;99363.13;;;8.20;81.60
79004;BME280;68369;51.050;17.018;2023-11-19T15:42:27;99356.91;;;8.18;80.53
79004;BME280;68369;51.050;17.018;2023-11-19T15:45:14;99364.99;;;8.14;80.14
79004;BME280;68369;51.050;17.018;2023-11-19T15:48:03;99367.16;;;8.12;80.90
79004;BME280;68369;51.050;17.018;2023-11-19T15:50:52;99370.75;;;8.14;80.88
79004;BME280;68369;51.050;17.018;2023-11-19T15:56:46;99375.86;;;8.13;80.37
79004;BME280;68369;51.050;17.018;2023-11-19T15:59:34;99374.59;;;8.10;80.19
79004;BME280;68369;51.050;17.018;2023-11-19T16:08:37;99385.43;;;7.94;80.19
79004;BME280;68369;51.050;17.018;2023-11-19T16:11:26;99384.40;;;7.94;80.03
79004;BME280;68369;51.050;17.018;2023-11-19T16:14:21;99385.85;;;7.93;80.04
79004;BME280;68369;51.050;17.018;2023-11-19T16:17:07;99383.77;;;7.92;80.09
79004;BME280;68369;51.050;17.018;2023-11-19T16:19:54;99385.20;;;7.95;80.64
79004;BME280;68369;51.050;17.018;2023-11-19T16:22:41;99386.96;;;7.99;79.89
79004;BME280;68369;51.050;17.018;2023-11-19T16:25:31;99383.84;;;7.98;80.02
79004;BME280;68369;51.050;17.018;2023-11-19T16:28:17;99379.30;;;7.98;80.13
79004;BME280;68369;51.050;17.018;2023-11-19T16:34:14;99377.65;;;7.96;79.84
79004;BME280;68369;51.050;17.018;2023-11-19T16:37:01;99381.42;;;7.98;79.80
79004;BME280;68369;51.050;17.018;2023-11-19T16:39:48;99379.48;;;8.02;79.82
79004;BME280;68369;51.050;17.018;2023-11-19T16:42:34;99378.19;;;8.07;79.76
79004;BME280;68369;51.050;17.018;2023-11-19T16:45:23;99369.06;;;8.09;80.14
79004;BME280;68369;51.050;17.018;2023-11-19T16:54:55;99368.59;;;8.07;79.97
79004;BME280;68369;51.050;17.018;2023-11-19T16:57:42;99372.88;;;8.09;79.97
79004;BME280;68369;51.050;17.018;2023-11-19T17:03:38;99375.63;;;8.14;80.15
79004;BME280;68369;51.050;17.018;2023-11-19T17:22:21;99367.17;;;8.23;79.65
79004;BME280;68369;51.050;17.018;2023-11-19T17:31:45;99371.45;;;8.32;79.26
79004;BME280;68369;51.050;17.018;2023-11-19T17:34:33;99372.91;;;8.34;79.60
79004;BME280;68369;51.050;17.018;2023-11-19T17:43:28;99377.77;;;8.46;79.20
79004;BME280;68369;51.050;17.018;2023-11-19T17:46:16;99382.45;;;8.46;78.45
79004;BME280;68369;51.050;17.018;2023-11-19T17:49:02;99381.52;;;8.44;78.48
79004;BME280;68369;51.050;17.018;2023-11-19T17:51:50;99380.29;;;8.41;78.68
79004;BME280;68369;51.050;17.018;2023-11-19T17:57:42;99379.22;;;8.41;78.55
79004;BME280;68369;51.050;17.018;2023-11-19T18:00:29;99377.25;;;8.43;78.31
79004;BME280;68369;51.050;17.018;2023-11-19T18:03:16;99380.01;;;8.46;78.91
79004;BME280;68369;51.050;17.018;2023-11-19T18:06:04;99378.02;;;8.52;79.07
79004;BME280;68369;51.050;17.018;2023-11-19T18:12:11;99370.31;;;8.56;78.37
79004;BME280;68369;51.050;17.018;2023-11-19T18:19:10;99369.77;;;8.53;77.90
79004;BME280;68369;51.050;17.018;2023-11-19T18:28:24;99369.89;;;8.54;77.27
79004;BME280;68369;51.050;17.018;2023-11-19T18:31:12;99369.38;;;8.54;77.01
79004;BME280;68369;51.050;17.018;2023-11-19T18:37:17;99371.51;;;8.53;77.38
79004;BME280;68369;51.050;17.018;2023-11-19T18:50:25;99371.91;;;8.69;77.59
79004;BME280;68369;51.050;17.018;2023-11-19T18:53:11;99374.27;;;8.75;76.71
79004;BME280;68369;51.050;17.018;2023-11-19T18:59:12;99373.70;;;8.79;77.16
79004;BME280;68369;51.050;17.018;2023-11-19T19:02:00;99369.45;;;8.80;77.05
79004;BME280;68369;51.050;17.018;2023-11-19T19:04:49;99374.56;;;8.83;77.09
79004;BME280;68369;51.050;17.018;2023-11-19T19:11:04;99370.21;;;8.93;76.99
79004;BME280;68369;51.050;17.018;2023-11-19T19:13:52;99370.88;;;8.97;77.13
79004;BME280;68369;51.050;17.018;2023-11-19T19:16:39;99374.41;;;9.00;77.22
79004;BME280;68369;51.050;17.018;2023-11-19T19:19:26;99378.00;;;8.98;76.25
79004;BME280;68369;51.050;17.018;2023-11-19T19:22:14;99379.15;;;8.96;76.48
79004;BME280;68369;51.050;17.018;2023-11-19T19:25:01;99368.38;;;8.94;76.53
79004;BME280;68369;51.050;17.018;2023-11-19T19:27:47;99371.40;;;8.97;76.82
79004;BME280;68369;51.050;17.018;2023-11-19T19:33:43;99375.86;;;9.05;77.14
79004;BME280;68369;51.050;17.018;2023-11-19T19:39:45;99379.71;;;9.08;76.75
79004;BME280;68369;51.050;17.018;2023-11-19T19:42:36;99375.49;;;9.06;76.59
79004;BME280;68369;51.050;17.018;2023-11-19T19:45:22;99377.32;;;9.04;77.19
79004;BME280;68369;51.050;17.018;2023-11-19T19:48:09;99377.77;;;9.06;76.88
79004;BME280;68369;51.050;17.018;2023-11-19T19:50:56;99380.39;;;9.09;77.06
79004;BME280;68369;51.050;17.018;2023-11-19T20:03:08;99391.07;;;9.15;76.73
79004;BME280;68369;51.050;17.018;2023-11-19T20:05:56;99390.17;;;9.12;75.92
79004;BME280;68369;51.050;17.018;2023-11-19T20:08:44;99394.23;;;9.08;75.73
79004;BME280;68369;51.050;17.018;2023-11-19T20:11:32;99397.89;;;9.08;76.50
79004;BME280;68369;51.050;17.018;2023-11-19T20:20:46;99401.30;;;9.16;76.03
79004;BME280;68369;51.050;17.018;2023-11-19T20:23:36;99401.29;;;9.17;75.95
79004;BME280;68369;51.050;17.018;2023-11-19T20:26:23;99400.59;;;9.17;76.39
79004;BME280;68369;51.050;17.018;2023-11-19T20:29:10;99402.34;;;9.16;76.52
79004;BME280;68369;51.050;17.018;2023-11-19T20:38:15;99407.19;;;9.21;77.09
79004;BME280;68369;51.050;17.018;2023-11-19T20:41:03;99407.06;;;9.24;76.46
79004;BME280;68369;51.050;17.018;2023-11-19T20:43:52;99408.63;;;9.24;76.49
79004;BME280;68369;51.050;17.018;2023-11-19T20:46:38;99408.93;;;9.24;76.41
79004;BME280;68369;51.050;17.018;2023-11-19T20:49:25;99408.34;;;9.22;75.89
79004;BME280;68369;51.050;17.018;2023-11-19T20:52:12;99408.25;;;9.21;76.07
79004;BME280;68369;51.050;17.018;2023-11-19T20:54:58;99409.85;;;9.20;76.28
79004;BME280;68369;51.050;17.018;2023-11-19T20:57:45;99413.55;;;9.20;75.97
79004;BME280;68369;51.050;17.018;2023-11-19T21:00:31;99412.21;;;9.22;76.13
79004;BME280;68369;51.050;17.018;2023-11-19T21:03:18;99412.63;;;9.24;76.03
79004;BME280;68369;51.050;17.018;2023-11-19T21:08:46;99414.07;;;9.26;75.31
79004;BME280;68369;51.050;17.018;2023-11-19T21:14:31;99413.81;;;9.18;75.35
79004;BME280;68369;51.050;17.018;2023-11-19T21:17:19;99413.69;;;9.16;75.28
79004;BME280;68369;51.050;17.018;2023-11-19T21:26:00;99415.80;;;9.27;75.60
79004;BME280;68369;51.050;17.018;2023-11-19T21:28:48;99420.84;;;9.30;75.87
79004;BME280;68369;51.050;17.018;2023-11-19T21:31:35;99422.01;;;9.35;76.04
79004;BME280;68369;51.050;17.018;2023-11-19T21:37:39;99425.14;;;9.49;76.32
79004;BME280;68369;51.050;17.018;2023-11-19T21:40:26;99425.60;;;9.56;76.25
79004;BME280;68369;51.050;17.018;2023-11-19T21:43:12;99424.36;;;9.64;76.22
79004;BME280;68369;51.050;17.018;2023-11-19T21:45:59;99430.18;;;9.69;76.81
79004;BME280;68369;51.050;17.018;2023-11-19T21:48:46;99425.09;;;9.70;77.52
79004;BME280;68369;51.050;17.018;2023-11-19T21:51:38;99417.73;;;9.70;78.38
79004;BME280;68369;51.050;17.018;2023-11-19T21:54:25;99406.25;;;9.69;78.66
79004;BME280;68369;51.050;17.018;2023-11-19T21:57:11;99399.30;;;9.68;78.82
79004;BME280;68369;51.050;17.018;2023-11-19T22:19:56;99386.94;;;9.54;79.00
79004;BME280;68369;51.050;17.018;2023-11-19T22:29:12;99390.46;;;9.54;78.94
79004;BME280;68369;51.050;17.018;2023-11-19T22:31:59;99392.02;;;9.51;78.82
79004;BME280;68369;51.050;17.018;2023-11-19T22:34:45;99387.48;;;9.47;78.85
79004;BME280;68369;51.050;17.018;2023-11-19T22:37:31;99388.45;;;9.46;78.99
79004;BME280;68369;51.050;17.018;2023-11-19T22:40:18;99389.33;;;9.45;78.75
79004;BME280;68369;51.050;17.018;2023-11-19T22:43:04;99385.16;;;9.45;78.65
79004;BME280;68369;51.050;17.018;2023-11-19T23:08:36;99404.00;;;9.08;78.39
79004;BME280;68369;51.050;17.018;2023-11-19T23:11:22;99401.77;;;9.08;78.44
79004;BME280;68369;51.050;17.018;2023-11-19T23:23:54;99405.88;;;8.95;78.38
79004;BME280;68369;51.050;17.018;2023-11-19T23:32:39;99413.50;;;8.92;78.56
79004;BME280;68369;51.050;17.018;2023-11-19T23:35:26;99410.81;;;8.94;78.32
79004;BME280;68369;51.050;17.018;2023-11-19T23:38:13;99415.08;;;8.93;77.85
79004;BME280;68369;51.050;17.018;2023-11-19T23:40:59;99418.16;;;8.90;78.06
79004;BME280;68369;51.050;17.018;2023-11-19T23:46:39;99419.80;;;8.85;77.89
79004;BME280;68369;51.050;17.018;2023-11-19T23:55:56;99416.68;;;8.78;77.86
